Portada
METAR-TAF:

METAR-TAF

Aeropuertos :

Quentin Aanenson Field

Luverne, Minnesota, Estados Unidos

latitud: 43-37-16N, longitud: 096-12-58W, altitud: 436 m

Observación

El informe se hizo hace 14 minutos, a las 07:16 UTC
Viento calma
Temperatura 12°C
Humedad 76%
Presión 1024 hPa
Visibilidad: 16.1 km
Cielo nuboso a una altura de 9500 ft

METAR: KLYV 310716Z AUTO 00000KT 10SM BKN095 12/08 A3025 RMK AO2

Hora: 02:30 (07:30 UTC)


TAF: falta

Observaciones y pronósticos meteorológicos de más de 4000 aeropuertos (mensajes METAR y TAF).

Los puntos amarillos y rojos representan las estaciones disponibles.

Ponga el ratón en el punto deseado para ver el nombre de la estación.

Haga clic para ver las observaciones y los pronósticos meteorológicos.

Para cambiar el mapa : haga clic en los botones verdes con una cruz de color negro para hacer un zoom, en el botón verde con un guión para alejar o en las flechas verdes para mapas adyacentes.


METAR-TAF: